Time;durP1;ratioP1;P1;durP2;ratioP2;P2;SDS_P1;SDS_P2;PMS_P1;PMS_P2;Temp;Humidity;BMP_temperature;BMP_pressure;BME280_temperature;BME280_humidity;BME280_pressure;Samples;Min_cycle;Max_cycle;Signal;HPM_P1;HPM_P2
2023/07/13 00:01:56;;;;;;;18.83;4.68;;;17.80;99.90;;;;;;5026102;28;39687;-83
2023/07/13 00:04:25;;;;;;;20.50;4.15;;;17.80;99.90;;;;;;5042040;28;39259;-84
2023/07/13 00:06:51;;;;;;;25.05;4.65;;;17.80;99.90;;;;;;5026654;28;38998;-83
2023/07/13 00:09:18;;;;;;;21.23;4.30;;;17.80;99.90;;;;;;5030320;28;38113;-84
2023/07/13 00:11:47;;;;;;;24.00;4.43;;;17.80;99.90;;;;;;5034188;28;39785;-84
2023/07/13 00:14:15;;;;;;;26.58;4.75;;;17.80;99.90;;;;;;5042644;28;38966;-84
2023/07/13 00:16:43;;;;;;;22.38;3.72;;;17.80;99.90;;;;;;5027088;28;39311;-83
2023/07/13 00:19:11;;;;;;;23.08;4.75;;;17.80;99.90;;;;;;5029754;28;38750;-83
2023/07/13 00:21:41;;;;;;;20.88;4.07;;;17.80;99.90;;;;;;5027555;28;39293;-83
2023/07/13 00:24:12;;;;;;;18.02;3.88;;;17.80;99.90;;;;;;5038632;28;39104;-84
2023/07/13 00:26:39;;;;;;;19.05;4.40;;;17.80;99.90;;;;;;5035051;28;37932;-84
2023/07/13 00:29:08;;;;;;;23.55;4.03;;;17.80;99.90;;;;;;5031764;28;38990;-84
2023/07/13 00:31:35;;;;;;;26.52;3.85;;;17.80;99.90;;;;;;5017946;28;39020;-84
2023/07/13 00:34:02;;;;;;;25.55;5.13;;;17.70;99.90;;;;;;5041303;28;38951;-84
2023/07/13 00:36:30;;;;;;;23.48;4.38;;;17.70;99.90;;;;;;5026797;28;37841;-83
2023/07/13 00:38:57;;;;;;;17.05;3.75;;;17.60;99.90;;;;;;5028327;28;37218;-82
2023/07/13 00:41:23;;;;;;;25.35;4.80;;;17.60;99.90;;;;;;5042306;28;39459;-83
2023/07/13 00:43:49;;;;;;;16.83;3.85;;;17.60;99.90;;;;;;5017822;28;38778;-83
2023/07/13 00:46:30;;;;;;;20.02;4.43;;;17.60;99.90;;;;;;5020644;28;38304;-83
2023/07/13 00:49:01;;;;;;;22.57;4.33;;;17.50;99.90;;;;;;5047600;28;38136;-83
2023/07/13 00:51:39;;;;;;;15.68;2.95;;;17.50;99.90;;;;;;5020633;28;48393;-84
2023/07/13 00:54:12;;;;;;;19.83;4.25;;;17.50;99.90;;;;;;5017939;28;39250;-84
2023/07/13 00:56:41;;;;;;;19.98;3.78;;;17.40;99.90;;;;;;5037418;28;40151;-84
2023/07/13 00:59:09;;;;;;;19.98;3.28;;;17.40;99.90;;;;;;5042110;28;37508;-82
2023/07/13 01:06:43;;;;;;;20.13;4.13;;;17.30;99.90;;;;;;4988426;28;20545;-88
2023/07/13 01:09:11;;;;;;;30.85;4.40;;;17.20;99.90;;;;;;4991851;28;38028;-90
2023/07/13 01:11:38;;;;;;;20.67;3.83;;;17.20;99.90;;;;;;4993819;28;37960;-90
2023/07/13 01:14:04;;;;;;;16.85;3.78;;;17.20;99.90;;;;;;4997252;28;37154;-87
2023/07/13 01:16:35;;;;;;;16.20;2.90;;;17.20;99.90;;;;;;4999387;28;38370;-87
2023/07/13 01:19:03;;;;;;;12.85;2.75;;;17.10;99.90;;;;;;4995673;28;36778;-87
2023/07/13 01:21:32;;;;;;;9.45;2.10;;;17.10;99.90;;;;;;4989600;28;47320;-88
2023/07/13 01:23:58;;;;;;;11.80;2.10;;;17.00;99.90;;;;;;4996381;28;38317;-88
2023/07/13 01:26:24;;;;;;;10.05;2.13;;;17.00;99.90;;;;;;4987540;28;38900;-88
2023/07/13 01:28:51;;;;;;;10.82;2.05;;;16.90;99.90;;;;;;4991958;28;36360;-89
2023/07/13 01:31:17;;;;;;;7.85;1.75;;;16.90;99.90;;;;;;4981488;28;38753;-89
2023/07/13 01:33:43;;;;;;;7.15;2.00;;;16.90;99.90;;;;;;5006745;28;37327;-89
2023/07/13 01:36:11;;;;;;;10.65;2.00;;;16.90;99.90;;;;;;4982431;28;37123;-89
2023/07/13 01:38:37;;;;;;;5.57;1.27;;;16.90;99.90;;;;;;5004890;28;36311;-89
2023/07/13 01:41:04;;;;;;;5.65;1.50;;;16.90;99.90;;;;;;4984243;28;38692;-88
2023/07/13 01:43:30;;;;;;;8.85;1.75;;;16.80;99.90;;;;;;5008017;28;37563;-89
2023/07/13 01:45:56;;;;;;;9.63;1.73;;;16.80;99.90;;;;;;5008002;28;38628;-88
2023/07/13 01:48:23;;;;;;;7.70;2.00;;;16.80;99.90;;;;;;4991688;28;36225;-88
2023/07/13 01:50:49;;;;;;;4.70;1.60;;;16.80;99.90;;;;;;4997190;28;37590;-88
2023/07/13 01:53:16;;;;;;;7.60;1.95;;;16.70;99.90;;;;;;4998408;28;37580;-89
2023/07/13 01:55:42;;;;;;;13.35;2.75;;;16.80;99.90;;;;;;5011347;28;36919;-90
2023/07/13 01:58:08;;;;;;;12.70;2.38;;;16.70;99.90;;;;;;5011699;28;38258;-88
2023/07/13 02:00:34;;;;;;;10.00;2.50;;;16.80;99.90;;;;;;5006370;28;38670;-90
2023/07/13 02:03:00;;;;;;;15.57;3.25;;;16.70;99.90;;;;;;4994472;28;38699;-90
2023/07/13 02:05:27;;;;;;;13.02;2.67;;;16.80;99.90;;;;;;4994082;28;49151;-88
2023/07/13 02:07:53;;;;;;;17.33;3.13;;;16.80;99.90;;;;;;5007201;28;38901;-88
2023/07/13 02:10:20;;;;;;;14.95;2.75;;;16.80;99.90;;;;;;4992065;28;37601;-89
2023/07/13 02:12:50;;;;;;;16.83;3.63;;;16.80;99.90;;;;;;5010855;28;37485;-89
2023/07/13 02:15:17;;;;;;;24.95;4.13;;;16.70;99.90;;;;;;5008512;28;37540;-90
2023/07/13 02:17:43;;;;;;;21.27;3.83;;;16.80;99.90;;;;;;4990189;28;36160;-90
2023/07/13 02:20:10;;;;;;;18.75;3.72;;;16.80;99.90;;;;;;4988715;28;39610;-89
2023/07/13 02:22:36;;;;;;;23.48;4.35;;;16.80;99.90;;;;;;5006482;28;38477;-89
2023/07/13 02:25:02;;;;;;;20.13;4.15;;;16.80;99.90;;;;;;5007080;28;36985;-90
2023/07/13 02:27:28;;;;;;;18.00;3.88;;;16.90;99.90;;;;;;4988009;28;37622;-90
2023/07/13 02:29:55;;;;;;;19.50;4.25;;;16.80;99.90;;;;;;5008627;28;37649;-90
2023/07/13 02:32:21;;;;;;;24.88;4.75;;;16.80;99.90;;;;;;4989286;28;37341;-90
2023/07/13 02:34:48;;;;;;;16.25;3.40;;;16.80;99.90;;;;;;5006717;28;37943;-89
2023/07/13 02:37:15;;;;;;;25.60;3.67;;;16.80;99.90;;;;;;4986490;28;37898;-89
2023/07/13 02:39:41;;;;;;;20.52;4.05;;;16.80;99.90;;;;;;4989811;28;38867;-89
2023/07/13 02:42:07;;;;;;;16.60;4.28;;;16.80;99.90;;;;;;5006864;28;37345;-89
2023/07/13 02:44:33;;;;;;;18.73;4.45;;;16.80;99.90;;;;;;4990209;28;37899;-90
2023/07/13 02:47:00;;;;;;;24.17;4.47;;;16.80;99.90;;;;;;5015755;28;36183;-88
2023/07/13 02:49:26;;;;;;;26.00;4.68;;;16.80;99.90;;;;;;5004348;28;37729;-87
2023/07/13 02:51:52;;;;;;;24.90;4.50;;;16.70;99.90;;;;;;4983300;28;37691;-88
2023/07/13 02:54:18;;;;;;;21.02;4.38;;;16.70;99.90;;;;;;5007926;28;37124;-90
2023/07/13 02:56:44;;;;;;;19.98;4.78;;;16.60;99.90;;;;;;4988378;28;37527;-89
2023/07/13 02:59:12;;;;;;;16.25;3.90;;;16.60;99.90;;;;;;4986008;28;37821;-89
2023/07/13 03:01:38;;;;;;;17.48;4.18;;;16.60;99.90;;;;;;5002425;28;37253;-89
2023/07/13 03:04:04;;;;;;;16.38;4.22;;;16.60;99.90;;;;;;4992994;28;38115;-88
2023/07/13 03:06:32;;;;;;;23.55;4.47;;;16.50;99.90;;;;;;5007025;28;36009;-89
2023/07/13 03:08:59;;;;;;;23.17;4.97;;;16.50;99.90;;;;;;5003020;28;37650;-90
2023/07/13 03:11:26;;;;;;;20.95;5.40;;;16.50;99.90;;;;;;4992846;28;37227;-89
2023/07/13 03:13:53;;;;;;;21.75;5.25;;;16.50;99.90;;;;;;4989824;28;37920;-89
2023/07/13 03:16:19;;;;;;;22.02;5.25;;;16.50;99.90;;;;;;5006008;28;36223;-88
2023/07/13 03:18:47;;;;;;;22.30;5.45;;;16.50;99.90;;;;;;5007528;28;38750;-89
2023/07/13 03:21:14;;;;;;;27.85;5.55;;;16.50;99.90;;;;;;4998464;28;37688;-88
2023/07/13 03:23:40;;;;;;;25.27;5.80;;;16.50;99.90;;;;;;5006999;28;37232;-89
2023/07/13 03:26:12;;;;;;;21.63;5.28;;;16.50;99.90;;;;;;5006588;28;36451;-89
2023/07/13 03:28:39;;;;;;;;;;;16.50;99.90;;;;;;5008008;28;37600;-89
2023/07/13 03:31:08;;;;;;;25.50;5.40;;;16.50;99.90;;;;;;5006222;28;38939;-90
2023/07/13 03:33:34;;;;;;;25.27;5.15;;;16.50;99.90;;;;;;4990156;28;37109;-89
2023/07/13 03:36:00;;;;;;;19.75;5.43;;;16.50;99.90;;;;;;4990302;28;37391;-90
2023/07/13 03:38:27;;;;;;;22.15;5.22;;;16.50;99.90;;;;;;5016932;28;37805;-88
2023/07/13 03:40:53;;;;;;;24.55;5.00;;;16.50;99.90;;;;;;4990942;28;37728;-88
2023/07/13 03:43:20;;;;;;;20.20;4.90;;;16.50;99.90;;;;;;5004664;28;36902;-90
2023/07/13 03:45:47;;;;;;;23.05;5.40;;;16.50;99.90;;;;;;4990228;28;36095;-90
2023/07/13 03:48:13;;;;;;;19.73;4.57;;;16.50;99.90;;;;;;4990799;28;39139;-90
2023/07/13 03:50:40;;;;;;;21.23;5.45;;;16.50;99.90;;;;;;4991572;28;38529;-89
2023/07/13 03:53:06;;;;;;;19.25;4.88;;;16.50;99.90;;;;;;4989315;28;37898;-90
2023/07/13 03:55:32;;;;;;;21.80;4.75;;;16.50;99.90;;;;;;4990367;28;37869;-88
2023/07/13 03:58:21;;;;;;;18.95;4.88;;;16.50;99.90;;;;;;4991468;28;38723;-90
2023/07/13 04:00:47;;;;;;;18.77;4.38;;;16.50;99.90;;;;;;4988111;28;46933;-90
2023/07/13 04:03:13;;;;;;;18.25;5.45;;;16.50;99.90;;;;;;5002334;28;36805;-89
2023/07/13 04:05:40;;;;;;;25.35;5.03;;;16.50;99.90;;;;;;4999836;28;36520;-89
2023/07/13 04:08:06;;;;;;;26.75;5.53;;;16.50;99.90;;;;;;4989830;28;38330;-89
2023/07/13 04:10:34;;;;;;;22.95;4.80;;;16.50;99.90;;;;;;5005584;28;20114;-88
2023/07/13 04:13:00;;;;;;;25.08;5.80;;;16.50;99.90;;;;;;5006578;28;37083;-88
2023/07/13 04:15:30;;;;;;;21.52;4.53;;;16.50;99.90;;;;;;4990297;28;37211;-89
2023/07/13 04:17:56;;;;;;;18.88;5.38;;;16.40;99.90;;;;;;5008016;28;37971;-88
2023/07/13 04:20:24;;;;;;;18.73;4.95;;;16.40;99.90;;;;;;5006171;28;37647;-89
2023/07/13 04:22:51;;;;;;;25.08;5.18;;;16.40;99.90;;;;;;4986909;28;37340;-89
2023/07/13 04:25:17;;;;;;;20.92;5.03;;;16.40;99.90;;;;;;4981932;28;37333;-89
2023/07/13 04:27:43;;;;;;;25.60;5.88;;;16.40;99.90;;;;;;4989944;28;39403;-89
2023/07/13 04:30:09;;;;;;;19.55;5.95;;;16.40;99.90;;;;;;5010489;28;37081;-90
2023/07/13 04:32:36;;;;;;;18.60;5.40;;;16.50;99.90;;;;;;4994167;28;37235;-89
2023/07/13 04:35:02;;;;;;;19.55;5.65;;;16.50;99.90;;;;;;5002279;28;36194;-90
2023/07/13 04:37:29;;;;;;;22.45;6.05;;;16.50;99.90;;;;;;5006093;28;37769;-89
2023/07/13 04:39:56;;;;;;;23.15;4.78;;;16.50;99.90;;;;;;5005938;28;37219;-89
2023/07/13 04:42:22;;;;;;;25.27;6.50;;;16.60;99.90;;;;;;5004157;28;38714;-90
2023/07/13 04:44:51;;;;;;;16.55;4.40;;;16.60;99.90;;;;;;5004893;28;36489;-88
2023/07/13 04:47:18;;;;;;;16.65;4.95;;;16.70;99.90;;;;;;5002532;28;37817;-90
2023/07/13 04:49:45;;;;;;;18.83;5.13;;;16.80;99.90;;;;;;4988828;28;37702;-88
2023/07/13 04:52:12;;;;;;;25.95;5.93;;;16.80;99.90;;;;;;5005323;28;37555;-89
2023/07/13 04:54:38;;;;;;;24.48;5.78;;;16.80;99.90;;;;;;4988006;28;36436;-89
2023/07/13 04:57:08;;;;;;;20.95;5.93;;;16.90;99.90;;;;;;5004920;28;37843;-89
2023/07/13 04:59:34;;;;;;;20.38;5.22;;;16.90;99.90;;;;;;5001508;28;39115;-89
2023/07/13 05:02:01;;;;;;;26.13;5.22;;;16.90;99.90;;;;;;4991208;28;37087;-89
2023/07/13 05:04:27;;;;;;;20.60;4.80;;;17.00;99.90;;;;;;4986928;28;47850;-89
2023/07/13 05:06:53;;;;;;;20.73;5.18;;;17.00;99.90;;;;;;5005985;28;38955;-90
2023/07/13 05:09:26;;;;;;;32.25;5.68;;;17.00;99.90;;;;;;4989910;28;39066;-90
2023/07/13 05:11:52;;;;;;;20.65;4.50;;;17.10;99.90;;;;;;4989944;28;37239;-89
2023/07/13 05:14:18;;;;;;;23.27;5.55;;;17.10;99.90;;;;;;5003633;28;36419;-89
2023/07/13 05:16:44;;;;;;;18.08;4.70;;;17.20;99.90;;;;;;4996293;28;37802;-89
2023/07/13 05:19:12;;;;;;;19.17;4.57;;;17.20;99.90;;;;;;4993125;28;38305;-90
2023/07/13 05:21:38;;;;;;;20.98;4.90;;;17.30;99.90;;;;;;4996754;28;39095;-90
2023/07/13 05:24:04;;;;;;;22.88;5.07;;;17.30;99.90;;;;;;4987587;28;37180;-89
2023/07/13 05:26:30;;;;;;;21.80;4.70;;;17.30;99.90;;;;;;5001173;28;39049;-88
2023/07/13 05:28:57;;;;;;;21.73;5.20;;;17.40;99.90;;;;;;4999750;28;37242;-89
2023/07/13 05:31:23;;;;;;;16.08;5.18;;;17.60;99.90;;;;;;5004313;28;36951;-89
2023/07/13 05:33:49;;;;;;;17.45;4.05;;;17.80;99.90;;;;;;4988042;28;36996;-88
2023/07/13 05:36:18;;;;;;;17.58;4.63;;;17.80;99.90;;;;;;4980869;28;39228;-88
2023/07/13 05:38:44;;;;;;;20.40;5.25;;;17.60;99.90;;;;;;4999012;28;37496;-89
2023/07/13 05:41:10;;;;;;;18.08;4.45;;;17.70;99.90;;;;;;4971485;28;37754;-89
2023/07/13 05:43:36;;;;;;;28.35;6.68;;;17.50;99.90;;;;;;5010941;28;36249;-90
2023/07/13 05:46:03;;;;;;;18.92;5.40;;;17.30;99.90;;;;;;5009083;28;37715;-88
2023/07/13 05:48:29;;;;;;;25.48;6.00;;;17.30;99.90;;;;;;5009273;28;39141;-89
2023/07/13 05:50:55;;;;;;;26.25;5.43;;;17.20;99.90;;;;;;5007967;28;38003;-88
2023/07/13 05:53:21;;;;;;;19.05;5.53;;;17.20;99.90;;;;;;5008652;28;37671;-89
2023/07/13 05:55:49;;;;;;;24.85;6.13;;;17.20;99.90;;;;;;5011602;28;39065;-89
2023/07/13 05:58:17;;;;;;;26.38;5.45;;;17.10;99.90;;;;;;5015104;28;39123;-90
2023/07/13 06:00:43;;;;;;;20.50;6.22;;;17.10;99.90;;;;;;5011973;28;37060;-89
2023/07/13 06:03:10;;;;;;;23.52;6.60;;;17.10;99.90;;;;;;5015711;28;36143;-89
2023/07/13 06:05:37;;;;;;;24.25;6.60;;;17.00;99.90;;;;;;5009088;28;37664;-87
2023/07/13 06:08:04;;;;;;;22.80;7.28;;;17.00;99.90;;;;;;5008940;28;38271;-88
2023/07/13 06:10:37;;;;;;;22.35;5.70;;;17.00;99.90;;;;;;5011416;28;36955;-89
2023/07/13 06:13:03;;;;;;;26.67;6.20;;;17.10;99.90;;;;;;5012637;28;35683;-89
2023/07/13 06:15:29;;;;;;;24.38;5.90;;;17.30;99.90;;;;;;5026207;28;37933;-88
2023/07/13 06:17:56;;;;;;;26.98;5.72;;;17.30;99.90;;;;;;5011939;28;37152;-90
2023/07/13 06:20:22;;;;;;;20.15;6.38;;;17.40;99.90;;;;;;5004563;28;37239;-89
2023/07/13 06:22:49;;;;;;;21.10;5.20;;;17.50;99.90;;;;;;5022895;28;36860;-89
2023/07/13 06:25:16;;;;;;;19.35;4.35;;;17.80;99.90;;;;;;5020911;28;37762;-90
2023/07/13 06:27:42;;;;;;;15.43;4.38;;;18.10;99.90;;;;;;5012669;28;38460;-88
2023/07/13 06:30:09;;;;;;;17.67;3.90;;;18.40;99.90;;;;;;5009956;28;37931;-90
2023/07/13 06:32:35;;;;;;;19.45;3.88;;;18.80;99.90;;;;;;5010760;28;36292;-88
2023/07/13 06:35:01;;;;;;;12.18;3.45;;;18.90;99.90;;;;;;5010766;28;38039;-90
2023/07/13 06:37:28;;;;;;;13.02;3.30;;;19.10;99.90;;;;;;5010870;28;37502;-88
2023/07/13 06:39:54;;;;;;;10.45;3.25;;;19.50;99.90;;;;;;5027230;28;38044;-87
2023/07/13 06:42:20;;;;;;;14.23;3.75;;;19.60;99.90;;;;;;5008166;28;36460;-87
2023/07/13 06:44:46;;;;;;;12.63;3.38;;;19.60;99.90;;;;;;5015892;28;38660;-87
2023/07/13 06:47:13;;;;;;;14.00;3.45;;;19.60;99.90;;;;;;5009941;28;38093;-89
2023/07/13 06:49:39;;;;;;;12.20;3.20;;;19.50;99.90;;;;;;5010482;28;37305;-91
2023/07/13 06:52:05;;;;;;;14.52;3.45;;;19.00;99.90;;;;;;5008379;28;37092;-90
2023/07/13 06:54:32;;;;;;;13.80;3.30;;;18.70;99.90;;;;;;5013790;28;38369;-89
2023/07/13 06:56:58;;;;;;;15.27;3.22;;;18.50;99.90;;;;;;5036428;28;37531;-89
2023/07/13 06:59:24;;;;;;;14.80;3.70;;;18.40;99.90;;;;;;5031630;28;37210;-89
2023/07/13 07:01:50;;;;;;;11.82;3.58;;;18.20;99.90;;;;;;5012519;28;36654;-89
2023/07/13 07:04:18;;;;;;;12.93;4.40;;;18.10;99.90;;;;;;5012724;28;39803;-93
2023/07/13 07:06:45;;;;;;;13.85;4.28;;;18.00;99.90;;;;;;5006647;28;37505;-94
2023/07/13 07:09:11;;;;;;;17.67;5.03;;;17.70;99.90;;;;;;4990207;28;37193;-88
2023/07/13 07:11:38;;;;;;;15.30;4.40;;;17.60;99.90;;;;;;4991125;28;36062;-94
2023/07/13 07:14:04;;;;;;;8.13;3.30;;;17.20;99.90;;;;;;5005851;28;38870;-91
2023/07/13 07:16:30;;;;;;;8.68;3.20;;;16.70;99.90;;;;;;5000773;28;37381;-91
2023/07/13 07:18:57;;;;;;;9.60;2.92;;;16.40;99.90;;;;;;4992507;28;38271;-92
2023/07/13 07:21:23;;;;;;;7.75;2.78;;;16.20;99.90;;;;;;4990691;28;39275;-94
2023/07/13 07:23:51;;;;;;;11.32;3.15;;;16.10;99.90;;;;;;5008798;28;37785;-94
2023/07/13 07:26:18;;;;;;;10.10;3.03;;;16.10;99.90;;;;;;5004750;28;38735;-90
2023/07/13 07:28:45;;;;;;;6.88;2.72;;;16.10;99.90;;;;;;4991745;28;37097;-94
2023/07/13 07:31:11;;;;;;;11.13;3.15;;;16.10;99.90;;;;;;5000775;28;36393;-94
2023/07/13 07:33:43;;;;;;;8.70;2.67;;;16.20;99.90;;;;;;4992351;28;38101;-93
2023/07/13 07:36:11;;;;;;;9.88;3.33;;;16.30;99.90;;;;;;4981794;28;37697;-91
2023/07/13 07:38:38;;;;;;;7.45;3.30;;;16.30;99.90;;;;;;4978145;28;38997;-92
2023/07/13 07:41:05;;;;;;;8.15;3.50;;;16.30;99.90;;;;;;4992683;28;38077;-92
2023/07/13 07:43:31;;;;;;;11.60;3.30;;;16.50;99.90;;;;;;5003782;28;38728;-92
2023/07/13 07:46:07;;;;;;;10.13;4.47;;;17.10;99.90;;;;;;5000485;28;38224;-92
2023/07/13 07:48:33;;;;;;;14.23;4.25;;;17.80;99.90;;;;;;4992616;28;47073;-92
2023/07/13 07:50:59;;;;;;;11.40;3.90;;;18.00;99.90;;;;;;5008832;28;36097;-89
2023/07/13 07:53:26;;;;;;;14.52;4.30;;;17.60;99.90;;;;;;4990377;28;39256;-88
2023/07/13 07:55:58;;;;;;;14.95;4.10;;;17.60;99.90;;;;;;4989916;28;38274;-93
2023/07/13 07:58:24;;;;;;;;;;;17.40;99.90;;;;;;5008126;28;37372;-85
2023/07/13 08:00:50;;;;;;;8.68;3.67;;;17.30;99.90;;;;;;5006806;28;39128;-93
2023/07/13 08:03:16;;;;;;;12.18;4.13;;;17.20;99.90;;;;;;4990559;28;38767;-93
2023/07/13 08:05:42;;;;;;;13.00;4.35;;;17.10;99.90;;;;;;4999052;28;37178;-92
2023/07/13 08:08:09;;;;;;;13.32;3.95;;;17.00;99.90;;;;;;5008712;28;37044;-92
2023/07/13 08:10:36;;;;;;;9.55;3.55;;;17.10;99.90;;;;;;5017346;28;36084;-92
2023/07/13 08:13:03;;;;;;;12.90;4.40;;;17.10;99.90;;;;;;5022680;28;37953;-92
2023/07/13 08:15:29;;;;;;;12.23;3.95;;;17.20;99.90;;;;;;5008007;28;39229;-92
2023/07/13 08:17:55;;;;;;;12.32;4.25;;;17.30;99.90;;;;;;5009109;28;37348;-92
2023/07/13 08:20:21;;;;;;;9.85;3.42;;;17.70;99.90;;;;;;5011318;28;37461;-88
2023/07/13 08:22:47;;;;;;;15.25;4.25;;;17.50;99.90;;;;;;5027673;28;40074;-89
2023/07/13 08:25:14;;;;;;;9.43;3.70;;;17.40;99.90;;;;;;5006351;28;37672;-93
2023/07/13 08:27:43;;;;;;;11.15;3.65;;;17.40;99.90;;;;;;4996272;28;37722;-90
2023/07/13 08:30:17;;;;;;;12.90;3.80;;;17.40;99.90;;;;;;5004313;28;36279;-91
2023/07/13 08:32:43;;;;;;;8.40;3.53;;;17.40;99.90;;;;;;5012141;28;39085;-90
2023/07/13 08:35:10;;;;;;;12.98;3.97;;;17.50;99.90;;;;;;5010985;28;37257;-93
2023/07/13 08:37:36;;;;;;;10.88;3.97;;;17.80;99.90;;;;;;5009341;28;37071;-93
2023/07/13 08:40:25;;;;;;;15.90;3.90;;;18.30;99.90;;;;;;5001806;28;35744;-93
2023/07/13 08:43:04;;;;;;;11.15;4.13;;;18.60;99.90;;;;;;5009782;28;47343;-92
2023/07/13 08:45:42;;;;;;;9.77;4.30;;;18.40;99.90;;;;;;5009983;28;47432;-93
2023/07/13 08:48:22;;;;;;;8.10;3.20;;;18.40;99.90;;;;;;5011138;28;36597;-94
2023/07/13 08:51:02;;;;;;;10.60;3.70;;;18.30;99.90;;;;;;5011134;28;36565;-94
2023/07/13 08:53:45;;;;;;;12.75;3.60;;;18.40;99.90;;;;;;5009572;28;48879;-95
2023/07/13 08:56:18;;;;;;;10.25;3.30;;;18.20;99.90;;;;;;5007427;28;38397;-95
2023/07/13 08:59:16;;;;;;;10.02;3.25;;;18.10;99.90;;;;;;4993484;28;37154;-95
2023/07/13 09:02:01;;;;;;;10.00;3.60;;;18.30;99.90;;;;;;5001641;28;47471;-94
2023/07/13 09:04:34;;;;;;;8.48;3.05;;;18.20;99.90;;;;;;5007006;28;47111;-94
2023/07/13 09:07:14;;;;;;;8.32;3.47;;;18.00;99.90;;;;;;5010918;28;37926;-95
2023/07/13 09:09:53;;;;;;;12.60;3.42;;;18.00;99.90;;;;;;5010799;28;47197;-96
2023/07/13 09:12:45;;;;;;;9.73;3.78;;;17.90;99.90;;;;;;5026806;28;37220;-95
2023/07/13 09:15:39;;;;;;;14.65;3.65;;;17.90;99.90;;;;;;4991305;28;37597;-93
2023/07/13 09:18:17;;;;;;;10.77;3.80;;;18.00;99.90;;;;;;5019476;28;38245;-95
2023/07/13 09:21:18;;;;;;;8.68;3.38;;;18.00;99.90;;;;;;5031640;28;37418;-94
2023/07/13 09:23:44;;;;;;;13.45;3.70;;;18.20;99.90;;;;;;4996562;28;47099;-95
2023/07/13 09:26:22;;;;;;;11.75;3.33;;;18.30;99.90;;;;;;5010513;28;38210;-95
2023/07/13 09:28:54;;;;;;;11.88;3.83;;;18.40;99.90;;;;;;5020677;28;37179;-96
2023/07/13 09:31:36;;;;;;;10.63;3.50;;;18.50;99.90;;;;;;5007377;28;37144;-94
2023/07/13 09:34:16;;;;;;;9.63;3.15;;;18.90;99.90;;;;;;5017686;28;38453;-92
2023/07/13 09:36:44;;;;;;;10.40;3.45;;;19.40;99.90;;;;;;5020793;28;38255;-93
2023/07/13 09:39:31;;;;;;;8.68;3.45;;;19.10;99.90;;;;;;5013728;28;37676;-93
2023/07/13 09:42:06;;;;;;;9.60;3.70;;;18.90;99.90;;;;;;5016110;28;38751;-94
2023/07/13 09:44:51;;;;;;;7.95;3.08;;;19.20;99.90;;;;;;5030459;28;47439;-93
2023/07/13 09:47:29;;;;;;;10.45;3.50;;;19.50;99.90;;;;;;5030139;28;37939;-93
2023/07/13 09:50:14;;;;;;;8.40;2.50;;;19.70;99.90;;;;;;5011275;28;37528;-93
2023/07/13 09:53:01;;;;;;;7.10;3.10;;;19.70;99.90;;;;;;5000299;28;48288;-92
2023/07/13 09:55:40;;;;;;;9.02;2.70;;;19.40;99.90;;;;;;5012819;28;47547;-89
2023/07/13 09:58:35;;;;;;;5.90;2.53;;;19.10;99.90;;;;;;5020595;28;39543;-92
2023/07/13 10:01:05;;;;;;;11.45;2.50;;;19.20;99.90;;;;;;5015089;28;38598;-92
2023/07/13 10:03:37;;;;;;;7.47;2.80;;;19.80;99.90;;;;;;5001746;28;48910;-91
2023/07/13 10:06:17;;;;;;;8.38;2.80;;;20.00;99.90;;;;;;5009384;28;36124;-91
2023/07/13 10:08:46;;;;;;;6.75;2.53;;;20.00;99.90;;;;;;5021224;28;37840;-90
2023/07/13 10:11:16;;;;;;;7.55;2.50;;;19.80;99.90;;;;;;5026978;28;37630;-90
2023/07/13 10:13:59;;;;;;;11.98;3.30;;;19.60;99.90;;;;;;5022616;28;37131;-90
2023/07/13 10:16:32;;;;;;;8.30;2.75;;;19.90;99.90;;;;;;5012353;28;36128;-88
2023/07/13 10:19:01;;;;;;;8.88;2.75;;;20.20;99.90;;;;;;5002245;28;37765;-89
2023/07/13 10:21:38;;;;;;;8.82;2.60;;;20.40;99.90;;;;;;5032137;28;47413;-89
2023/07/13 10:24:37;;;;;;;5.53;2.38;;;20.60;99.90;;;;;;5011015;28;37153;-89
2023/07/13 10:27:25;;;;;;;7.45;3.00;;;20.80;99.90;;;;;;5022969;28;36071;-87
2023/07/13 10:30:23;;;;;;;9.07;2.90;;;20.70;99.90;;;;;;5016854;28;37838;-87
2023/07/13 10:32:50;;;;;;;5.18;2.63;;;20.70;98.00;;;;;;5011447;28;47268;-88
2023/07/13 10:35:22;;;;;;;4.03;2.80;;;21.00;95.40;;;;;;5028556;28;38268;-88
2023/07/13 10:37:50;;;;;;;;;;;21.20;99.90;;;;;;5010296;28;36744;-89
2023/07/13 10:41:07;;;;;;;7.53;2.80;;;21.70;89.70;;;;;;5006560;28;39560;-88
2023/07/13 10:43:42;;;;;;;4.53;2.10;;;21.70;84.90;;;;;;4992811;28;49048;-88
2023/07/13 10:46:13;;;;;;;8.40;2.55;;;21.90;67.30;;;;;;5000964;28;36826;-84
2023/07/13 10:48:42;;;;;;;5.13;2.28;;;21.80;46.10;;;;;;5010072;28;37409;-85
2023/07/13 10:51:17;;;;;;;5.82;2.00;;;21.80;54.80;;;;;;5010406;28;38469;-86
2023/07/13 10:53:44;;;;;;;4.97;1.80;;;21.70;45.40;;;;;;5011518;28;37309;-83
2023/07/13 10:56:29;;;;;;;6.05;2.10;;;21.90;60.50;;;;;;5024944;28;37100;-84
2023/07/13 10:59:26;;;;;;;4.82;2.30;;;22.00;41.80;;;;;;5022521;28;37511;-82
2023/07/13 11:02:09;;;;;;;4.03;2.00;;;22.20;32.70;;;;;;4984447;28;47055;-84
2023/07/13 11:04:48;;;;;;;7.35;2.42;;;22.10;46.50;;;;;;5019513;28;48817;-86
2023/07/13 11:07:25;;;;;;;5.57;2.15;;;21.80;29.60;;;;;;5007788;28;36726;-85
2023/07/13 11:09:54;;;;;;;5.25;2.10;;;21.90;50.90;;;;;;5024650;28;36156;-85
2023/07/13 11:12:23;;;;;;;5.35;2.00;;;22.00;33.70;;;;;;5024884;28;37568;-83
2023/07/13 11:14:55;;;;;;;8.32;1.90;;;22.20;40.90;;;;;;5023989;28;37444;-85
2023/07/13 11:17:28;;;;;;;7.45;1.92;;;22.30;10.70;;;;;;5021298;28;38194;-81
2023/07/13 11:20:13;;;;;;;6.72;2.42;;;22.10;13.10;;;;;;5006308;28;36843;-83
2023/07/13 11:23:07;;;;;;;4.63;1.95;;;22.30;27.20;;;;;;5021313;28;46490;-85
2023/07/13 11:25:37;;;;;;;5.65;2.30;;;22.50;22.20;;;;;;5004572;28;47325;-85
2023/07/13 11:28:23;;;;;;;6.78;1.95;;;22.90;33.20;;;;;;5000489;28;37855;-87
2023/07/13 11:31:01;;;;;;;8.40;2.22;;;22.90;21.60;;;;;;5007848;28;36427;-85
2023/07/13 11:33:39;;;;;;;3.08;1.52;;;23.00;43.70;;;;;;5007465;28;47392;-86
2023/07/13 11:36:19;;;;;;;4.88;1.77;;;23.10;1.00;;;;;;5005271;28;36484;-87
2023/07/13 11:39:11;;;;;;;4.65;1.60;;;23.20;18.30;;;;;;5008120;28;38062;-87
2023/07/13 11:41:45;;;;;;;8.48;1.90;;;22.90;1.00;;;;;;5009051;28;49118;-86
2023/07/13 11:44:20;;;;;;;4.80;1.52;;;22.80;1.00;;;;;;5007299;28;37876;-83
2023/07/13 11:47:07;;;;;;;6.88;1.70;;;22.60;1.00;;;;;;5022241;28;37391;-86
2023/07/13 11:49:43;;;;;;;4.40;1.48;;;22.70;1.00;;;;;;5007181;28;48234;-86
2023/07/13 11:52:17;;;;;;;6.35;1.38;;;22.70;1.00;;;;;;5032830;28;37422;-89
2023/07/13 11:54:50;;;;;;;2.50;1.10;;;22.80;1.00;;;;;;5009481;28;38328;-86
2023/07/13 11:57:35;;;;;;;7.90;1.75;;;22.80;1.00;;;;;;5025155;28;37813;-87
2023/07/13 12:00:07;;;;;;;2.70;1.40;;;22.50;1.00;;;;;;5007294;28;37993;-84
2023/07/13 12:02:44;;;;;;;5.40;1.38;;;22.80;1.00;;;;;;5006949;28;36417;-86
2023/07/13 12:05:17;;;;;;;4.53;1.58;;;23.00;1.00;;;;;;5006175;28;37872;-87
2023/07/13 12:07:44;;;;;;;13.05;1.90;;;23.10;1.00;;;;;;5008496;28;38987;-85
2023/07/13 12:10:24;;;;;;;4.50;1.40;;;23.50;1.00;;;;;;5007640;28;36934;-87
2023/07/13 12:12:56;;;;;;;2.63;1.10;;;23.60;1.00;;;;;;5025072;28;36550;-86
2023/07/13 12:15:37;;;;;;;4.47;1.55;;;23.40;1.00;;;;;;5024345;28;37883;-86
2023/07/13 12:18:19;;;;;;;3.42;1.52;;;23.10;1.00;;;;;;5007024;28;37965;-86
2023/07/13 12:20:46;;;;;;;6.63;1.65;;;23.00;1.00;;;;;;5007681;28;37050;-88
2023/07/13 12:23:29;;;;;;;4.78;1.60;;;22.90;1.00;;;;;;5008833;28;37194;-86
2023/07/13 12:25:59;;;;;;;4.32;1.45;;;23.00;1.00;;;;;;5020767;28;37928;-87
2023/07/13 12:28:35;;;;;;;11.00;1.88;;;22.70;1.00;;;;;;5007236;28;37375;-87
2023/07/13 12:31:04;;;;;;;4.97;1.30;;;22.50;1.00;;;;;;5007722;28;37955;-86
2023/07/13 12:33:32;;;;;;;4.68;1.75;;;22.70;1.00;;;;;;5007982;28;48477;-87
2023/07/13 12:36:03;;;;;;;3.10;1.33;;;23.20;1.00;;;;;;5007023;28;39226;-85
2023/07/13 12:38:31;;;;;;;6.70;1.33;;;23.30;1.00;;;;;;5008559;28;48256;-86
2023/07/13 12:40:58;;;;;;;4.30;1.80;;;23.20;1.00;;;;;;5023088;28;36017;-86
2023/07/13 12:43:27;;;;;;;7.25;1.42;;;23.40;1.00;;;;;;5002897;28;35954;-87
2023/07/13 12:46:02;;;;;;;6.28;1.60;;;23.20;1.00;;;;;;5009607;28;37821;-89
2023/07/13 12:48:38;;;;;;;4.75;1.48;;;23.30;1.00;;;;;;5009074;28;47418;-87
2023/07/13 12:51:11;;;;;;;8.30;1.63;;;23.00;1.00;;;;;;5021391;28;38748;-86
2023/07/13 12:53:50;;;;;;;1.98;0.88;;;22.80;1.00;;;;;;5007511;28;36300;-87
2023/07/13 12:56:27;;;;;;;5.75;1.65;;;22.70;1.00;;;;;;5021239;28;37711;-87
2023/07/13 12:58:59;;;;;;;11.18;1.80;;;22.90;1.00;;;;;;5025717;28;38553;-89
2023/07/13 13:01:31;;;;;;;11.57;1.63;;;23.20;1.00;;;;;;5002497;28;38270;-86
2023/07/13 13:04:06;;;;;;;6.28;1.38;;;23.20;1.00;;;;;;5008368;28;35815;-87
2023/07/13 13:06:35;;;;;;;8.77;1.77;;;23.30;1.00;;;;;;5011365;28;47219;-86